Time;durP1;ratioP1;P1;durP2;ratioP2;P2;SDS_P1;SDS_P2;PMS_P1;PMS_P2;Temp;Humidity;BMP_temperature;BMP_pressure;BME280_temperature;BME280_humidity;BME280_pressure;Samples;Min_cycle;Max_cycle;Signal;HPM_P1;HPM_P2
2021/07/07 00:00:23;;;;;;;7.28;1.60;;;19.20;69.00;;;;;;5113897;27;20043;-74
2021/07/07 00:02:49;;;;;;;9.05;1.70;;;19.20;69.10;;;;;;5105159;27;20107;-74
2021/07/07 00:05:17;;;;;;;6.00;1.75;;;19.20;69.10;;;;;;5103681;27;20039;-74
2021/07/07 00:07:46;;;;;;;9.48;1.75;;;19.10;69.10;;;;;;5112201;28;20378;-75
2021/07/07 00:10:15;;;;;;;3.90;1.50;;;19.20;69.20;;;;;;5112250;28;20152;-74
2021/07/07 00:12:45;;;;;;;7.57;1.75;;;19.10;69.20;;;;;;5119562;28;20024;-75
2021/07/07 00:15:14;;;;;;;4.15;1.60;;;19.10;69.20;;;;;;5117574;28;20039;-74
2021/07/07 00:17:40;;;;;;;6.40;1.50;;;19.10;69.20;;;;;;5103229;28;20429;-74
2021/07/07 00:20:09;;;;;;;4.63;1.33;;;19.00;69.20;;;;;;5104890;28;20051;-74
2021/07/07 00:22:37;;;;;;;3.78;1.40;;;19.00;69.20;;;;;;5096263;28;20032;-74
2021/07/07 00:25:05;;;;;;;5.50;1.65;;;19.00;69.30;;;;;;5100560;28;20092;-77
2021/07/07 00:27:32;;;;;;;5.90;1.80;;;18.90;69.20;;;;;;5107116;28;20028;-76
2021/07/07 00:30:00;;;;;;;9.63;1.65;;;19.00;69.30;;;;;;5103171;28;20043;-75
2021/07/07 00:32:26;;;;;;;9.25;1.60;;;19.00;69.30;;;;;;5110987;28;20158;-75
2021/07/07 00:34:52;;;;;;;5.00;1.63;;;18.90;69.30;;;;;;5112324;28;20118;-75
2021/07/07 00:37:18;;;;;;;9.98;1.80;;;18.90;69.40;;;;;;5109950;28;20051;-75
2021/07/07 00:39:43;;;;;;;8.63;1.52;;;18.90;69.40;;;;;;5109813;28;20431;-75
2021/07/07 00:42:12;;;;;;;5.57;1.67;;;18.90;69.50;;;;;;5106147;28;20055;-75
2021/07/07 00:44:38;;;;;;;3.72;1.48;;;18.90;69.50;;;;;;5109623;28;20035;-75
2021/07/07 00:47:05;;;;;;;6.22;2.00;;;18.90;69.50;;;;;;5110783;28;20379;-75
2021/07/07 00:49:30;;;;;;;1.77;1.38;;;18.90;69.50;;;;;;5109781;28;20066;-75
2021/07/07 00:51:56;;;;;;;10.73;1.67;;;18.80;69.50;;;;;;5111570;28;20063;-75
2021/07/07 00:54:24;;;;;;;2.83;1.60;;;18.80;69.50;;;;;;5111785;28;20028;-75
2021/07/07 00:56:50;;;;;;;5.47;1.48;;;18.70;69.60;;;;;;5110848;28;20019;-75
2021/07/07 00:59:20;;;;;;;4.43;1.50;;;18.80;69.50;;;;;;5109323;28;20043;-75
2021/07/07 01:01:46;;;;;;;7.05;1.88;;;18.70;69.70;;;;;;5109387;27;20491;-74
2021/07/07 01:04:12;;;;;;;5.03;1.75;;;18.70;69.80;;;;;;5115254;28;20528;-75
2021/07/07 01:06:37;;;;;;;2.45;1.40;;;18.70;69.80;;;;;;5114135;28;20028;-75
2021/07/07 01:09:03;;;;;;;5.90;1.92;;;18.70;69.90;;;;;;5119359;28;20051;-75
2021/07/07 01:11:32;;;;;;;4.95;1.80;;;18.70;70.10;;;;;;5119568;28;20076;-75
2021/07/07 01:13:58;;;;;;;5.20;2.00;;;18.70;70.10;;;;;;5113848;28;20039;-75
2021/07/07 01:16:24;;;;;;;4.60;1.80;;;18.70;70.10;;;;;;5114508;28;20027;-75
2021/07/07 01:18:50;;;;;;;7.90;2.25;;;18.70;70.20;;;;;;5111882;28;20055;-75
2021/07/07 01:21:18;;;;;;;8.20;1.73;;;18.60;70.10;;;;;;5115916;28;20053;-75
2021/07/07 01:23:46;;;;;;;10.98;2.38;;;18.70;70.30;;;;;;5113567;28;20430;-75
2021/07/07 01:26:12;;;;;;;11.82;2.15;;;18.60;70.20;;;;;;5116170;28;20145;-75
2021/07/07 01:28:38;;;;;;;4.90;2.17;;;18.60;70.20;;;;;;5115024;28;20474;-75
2021/07/07 01:31:06;;;;;;;4.68;1.77;;;18.60;70.30;;;;;;5113398;28;20032;-75
2021/07/07 01:33:32;;;;;;;7.05;1.90;;;18.60;70.40;;;;;;5113798;28;20123;-75
2021/07/07 01:35:59;;;;;;;5.82;2.05;;;18.60;70.50;;;;;;5117524;27;20035;-75
2021/07/07 01:38:25;;;;;;;7.72;1.80;;;18.50;70.60;;;;;;5122319;27;20023;-74
2021/07/07 01:40:57;;;;;;;7.22;1.80;;;18.60;70.80;;;;;;5119364;27;22194;-75
2021/07/07 01:43:26;;;;;;;4.22;1.83;;;18.60;70.80;;;;;;5106343;28;20039;-75
2021/07/07 01:45:54;;;;;;;5.18;1.80;;;18.60;70.70;;;;;;5112090;28;20504;-75
2021/07/07 01:48:20;;;;;;;5.90;1.85;;;18.50;70.70;;;;;;5113287;28;20023;-75
2021/07/07 01:50:46;;;;;;;6.88;1.90;;;18.50;70.40;;;;;;5113444;28;20023;-75
2021/07/07 01:53:15;;;;;;;6.55;1.85;;;18.50;70.70;;;;;;5113805;27;20047;-75
2021/07/07 01:55:40;;;;;;;5.45;1.77;;;18.50;70.60;;;;;;5114274;28;20042;-76
2021/07/07 01:58:06;;;;;;;5.45;1.60;;;18.40;70.70;;;;;;5114640;27;20050;-75
2021/07/07 02:00:37;;;;;;;14.55;2.00;;;18.40;70.60;;;;;;5118907;27;20028;-75
2021/07/07 02:03:02;;;;;;;4.07;2.03;;;18.40;71.00;;;;;;5113480;28;20039;-75
2021/07/07 02:05:37;;;;;;;8.57;1.80;;;18.40;71.00;;;;;;5116926;27;20028;-75
2021/07/07 02:08:05;;;;;;;11.50;1.85;;;18.40;71.10;;;;;;5125463;27;20023;-75
2021/07/07 02:10:32;;;;;;;7.82;1.70;;;18.40;71.10;;;;;;5121295;27;20515;-74
2021/07/07 02:12:57;;;;;;;13.00;1.90;;;18.30;71.00;;;;;;5106829;27;20110;-74
2021/07/07 02:15:26;;;;;;;5.90;1.90;;;18.30;71.00;;;;;;5122018;27;20110;-75
2021/07/07 02:17:56;;;;;;;5.82;2.30;;;18.30;71.20;;;;;;5113744;27;20022;-74
2021/07/07 02:20:23;;;;;;;3.55;2.00;;;18.30;71.20;;;;;;5113329;27;20061;-74
2021/07/07 02:22:49;;;;;;;6.32;2.03;;;18.30;71.20;;;;;;5130969;27;20053;-75
2021/07/07 02:25:25;;;;;;;8.50;2.30;;;18.30;71.40;;;;;;5117733;27;20027;-74
2021/07/07 02:27:52;;;;;;;5.38;1.75;;;18.30;71.40;;;;;;5103506;28;20364;-75
2021/07/07 02:30:20;;;;;;;6.55;1.92;;;18.20;71.30;;;;;;5126178;27;20027;-75
2021/07/07 02:32:49;;;;;;;7.25;2.30;;;18.30;71.30;;;;;;5109354;28;20020;-75
2021/07/07 02:35:18;;;;;;;5.97;1.90;;;18.20;71.30;;;;;;5115709;27;20023;-75
2021/07/07 02:37:44;;;;;;;8.60;2.53;;;18.20;71.70;;;;;;5114609;27;20389;-75
2021/07/07 02:40:11;;;;;;;5.72;1.63;;;18.20;71.70;;;;;;5113360;27;20100;-75
2021/07/07 02:42:37;;;;;;;2.72;1.80;;;18.20;71.60;;;;;;5109012;28;20028;-74
2021/07/07 02:45:05;;;;;;;5.85;2.25;;;18.20;71.70;;;;;;5115019;27;20028;-75
2021/07/07 02:47:31;;;;;;;5.03;2.33;;;18.20;71.50;;;;;;5110856;28;20384;-75
2021/07/07 02:49:56;;;;;;;7.40;2.30;;;18.20;71.70;;;;;;5114563;27;20032;-75
2021/07/07 02:52:22;;;;;;;5.28;2.13;;;18.10;71.60;;;;;;5108411;27;20024;-75
2021/07/07 02:54:48;;;;;;;4.35;2.10;;;18.10;71.90;;;;;;5114292;27;20580;-75
2021/07/07 02:57:15;;;;;;;4.95;1.70;;;18.10;71.90;;;;;;5117220;27;20015;-75
2021/07/07 02:59:41;;;;;;;5.57;2.28;;;18.10;72.60;;;;;;5113978;28;20039;-75
2021/07/07 03:02:08;;;;;;;4.40;2.10;;;18.10;72.00;;;;;;5118756;27;20505;-75
2021/07/07 03:04:34;;;;;;;6.25;2.00;;;18.00;71.80;;;;;;5115915;27;20112;-74
2021/07/07 03:07:09;;;;;;;3.90;1.80;;;18.00;72.10;;;;;;5119663;27;20024;-75
2021/07/07 03:09:35;;;;;;;6.63;2.03;;;18.00;71.90;;;;;;5108989;27;20024;-75
2021/07/07 03:12:00;;;;;;;6.63;1.70;;;17.90;71.90;;;;;;5111743;27;20462;-75
2021/07/07 03:14:29;;;;;;;10.02;1.90;;;17.90;71.70;;;;;;5110881;28;20035;-75
2021/07/07 03:16:54;;;;;;;9.60;2.20;;;17.90;71.50;;;;;;5125748;27;20026;-75
2021/07/07 03:19:20;;;;;;;4.82;2.08;;;17.80;71.70;;;;;;5121864;27;20138;-75
2021/07/07 03:21:45;;;;;;;4.88;1.90;;;17.90;71.90;;;;;;5115200;27;20024;-75
2021/07/07 03:24:11;;;;;;;4.35;2.35;;;17.80;72.00;;;;;;5111348;27;20088;-75
2021/07/07 03:26:40;;;;;;;3.65;1.92;;;17.80;72.10;;;;;;5117806;27;20067;-75
2021/07/07 03:29:08;;;;;;;5.85;2.10;;;17.80;72.20;;;;;;5116834;27;20036;-76
2021/07/07 03:31:35;;;;;;;7.18;2.58;;;17.70;72.40;;;;;;5116641;27;20076;-75
2021/07/07 03:34:01;;;;;;;6.07;2.10;;;17.70;72.70;;;;;;5123634;27;20055;-75
2021/07/07 03:36:27;;;;;;;7.07;1.90;;;17.70;72.90;;;;;;5118829;27;20055;-75
2021/07/07 03:38:52;;;;;;;3.30;2.20;;;17.70;73.10;;;;;;5121021;27;20057;-75
2021/07/07 03:41:18;;;;;;;9.35;2.15;;;17.70;73.40;;;;;;5112526;28;20023;-77
2021/07/07 03:43:43;;;;;;;6.65;2.20;;;17.80;73.40;;;;;;5112363;28;20067;-76
2021/07/07 03:46:09;;;;;;;7.38;2.13;;;17.70;73.50;;;;;;5114470;27;20024;-75
2021/07/07 03:48:35;;;;;;;7.35;1.92;;;17.80;73.70;;;;;;5115275;27;20024;-75
2021/07/07 03:51:00;;;;;;;11.45;2.53;;;17.80;73.90;;;;;;5117513;27;20062;-75
2021/07/07 03:53:26;;;;;;;10.52;2.38;;;17.80;74.10;;;;;;5114144;27;20038;-75
2021/07/07 03:55:52;;;;;;;4.32;1.95;;;17.80;74.00;;;;;;5122977;27;20019;-75
2021/07/07 03:58:17;;;;;;;7.10;2.67;;;17.80;74.10;;;;;;5114117;27;20043;-75
2021/07/07 04:00:43;;;;;;;3.67;1.92;;;17.80;74.10;;;;;;5115782;27;20039;-75
2021/07/07 04:03:09;;;;;;;3.83;1.77;;;17.80;74.20;;;;;;5113078;28;20103;-75
2021/07/07 04:05:35;;;;;;;9.77;2.40;;;17.80;74.20;;;;;;5115923;27;20028;-75
2021/07/07 04:08:04;;;;;;;14.95;2.10;;;17.80;74.20;;;;;;5118953;28;20026;-75
2021/07/07 04:10:30;;;;;;;9.10;2.25;;;17.80;74.40;;;;;;5117040;28;20557;-75
2021/07/07 04:12:56;;;;;;;5.00;2.35;;;17.80;74.50;;;;;;5119600;28;20129;-74
2021/07/07 04:15:21;;;;;;;5.53;2.35;;;17.80;74.40;;;;;;5123367;28;20018;-75
2021/07/07 04:17:47;;;;;;;11.73;2.60;;;17.80;74.80;;;;;;5122788;28;20395;-74
2021/07/07 04:20:16;;;;;;;7.75;2.47;;;17.80;75.00;;;;;;5124719;28;20039;-75
2021/07/07 04:22:41;;;;;;;6.30;2.00;;;17.80;75.30;;;;;;5115935;28;20060;-75
2021/07/07 04:25:11;;;;;;;3.97;1.83;;;17.80;75.70;;;;;;5112694;28;20538;-75
2021/07/07 04:27:38;;;;;;;6.28;1.77;;;17.80;75.00;;;;;;5112609;28;20110;-74
2021/07/07 04:30:09;;;;;;;4.32;1.88;;;17.80;75.30;;;;;;5113892;28;20032;-74
2021/07/07 04:32:34;;;;;;;11.70;1.80;;;17.80;75.40;;;;;;5099588;28;20023;-73
2021/07/07 04:35:00;;;;;;;5.28;1.83;;;17.80;75.60;;;;;;5093182;28;20422;-74
2021/07/07 04:37:26;;;;;;;6.20;2.00;;;17.80;75.60;;;;;;5116540;27;20043;-74
2021/07/07 04:39:54;;;;;;;12.32;2.17;;;17.80;75.80;;;;;;5117085;27;20440;-74
2021/07/07 04:42:20;;;;;;;5.10;2.10;;;17.80;74.90;;;;;;5115601;27;20088;-74
2021/07/07 04:44:46;;;;;;;7.43;3.17;;;17.80;75.40;;;;;;5117574;27;20466;-74
2021/07/07 04:47:12;;;;;;;7.90;2.08;;;17.80;75.70;;;;;;5114513;27;20057;-74
2021/07/07 04:49:37;;;;;;;5.43;2.05;;;17.80;75.40;;;;;;5115163;28;20028;-74
2021/07/07 04:52:04;;;;;;;5.43;2.53;;;17.80;75.40;;;;;;5127373;27;20057;-75
2021/07/07 04:54:32;;;;;;;6.72;2.13;;;17.80;76.00;;;;;;5115660;27;20034;-74
2021/07/07 04:56:58;;;;;;;2.78;1.52;;;17.80;76.20;;;;;;5114965;28;20505;-74
2021/07/07 04:59:23;;;;;;;17.58;2.25;;;17.80;75.80;;;;;;5115904;27;20433;-74
2021/07/07 05:01:49;;;;;;;5.22;2.03;;;17.80;75.60;;;;;;5121144;27;20027;-75
2021/07/07 05:04:18;;;;;;;11.70;2.70;;;17.80;75.80;;;;;;5117262;27;20036;-74
2021/07/07 05:06:46;;;;;;;7.03;2.20;;;17.80;76.10;;;;;;5113220;28;20164;-74
2021/07/07 05:09:12;;;;;;;6.00;2.05;;;17.80;76.30;;;;;;5117775;27;20019;-74
2021/07/07 05:11:40;;;;;;;5.55;2.15;;;17.80;76.40;;;;;;5114443;28;20504;-74
2021/07/07 05:14:07;;;;;;;9.40;2.42;;;17.80;76.60;;;;;;5114912;28;20106;-74
2021/07/07 05:16:33;;;;;;;9.85;2.42;;;17.90;76.60;;;;;;5115614;28;20027;-74
2021/07/07 05:18:59;;;;;;;7.75;2.25;;;17.90;76.80;;;;;;5128712;27;20470;-75
2021/07/07 05:21:28;;;;;;;8.02;1.88;;;18.00;77.30;;;;;;5123906;27;20020;-74
2021/07/07 05:23:54;;;;;;;40.03;3.00;;;18.00;77.30;;;;;;5122508;27;20486;-75
2021/07/07 05:26:20;;;;;;;23.88;2.78;;;18.00;76.80;;;;;;5123968;27;20035;-75
2021/07/07 05:28:45;;;;;;;11.57;2.08;;;18.10;77.10;;;;;;5117805;27;20036;-73
2021/07/07 05:31:11;;;;;;;3.38;1.88;;;18.10;77.00;;;;;;5131608;27;20534;-74
2021/07/07 05:33:37;;;;;;;9.20;2.22;;;18.10;76.70;;;;;;5125042;27;20531;-73
2021/07/07 05:36:04;;;;;;;9.45;2.42;;;18.10;76.80;;;;;;5120370;27;20417;-74
2021/07/07 05:38:30;;;;;;;4.68;2.20;;;18.20;77.00;;;;;;5115910;27;20475;-74
2021/07/07 05:40:56;;;;;;;6.50;2.20;;;18.20;76.80;;;;;;5120841;27;20039;-73
2021/07/07 05:43:22;;;;;;;12.38;2.72;;;18.10;76.90;;;;;;5119420;27;20019;-74
2021/07/07 05:45:48;;;;;;;6.80;2.28;;;18.20;77.50;;;;;;5113095;27;20051;-74
2021/07/07 05:48:14;;;;;;;5.13;2.28;;;18.30;77.80;;;;;;5121651;27;20463;-74
2021/07/07 05:50:39;;;;;;;14.43;2.30;;;18.20;77.10;;;;;;5095884;28;20038;-74
2021/07/07 05:53:08;;;;;;;5.65;1.92;;;18.30;77.50;;;;;;5107972;28;20027;-74
2021/07/07 05:55:37;;;;;;;9.65;2.33;;;18.30;77.10;;;;;;5111016;28;20114;-74
2021/07/07 05:58:05;;;;;;;9.75;1.88;;;18.30;76.70;;;;;;5112940;27;20028;-73
2021/07/07 06:00:31;;;;;;;10.85;2.25;;;18.30;76.40;;;;;;5116539;27;20084;-76
2021/07/07 06:02:59;;;;;;;11.10;2.28;;;18.30;76.30;;;;;;5103885;27;20479;-77
2021/07/07 06:05:26;;;;;;;6.55;2.08;;;18.30;76.00;;;;;;5121279;27;20181;-71
2021/07/07 06:07:53;;;;;;;6.40;2.17;;;18.30;76.10;;;;;;5125435;27;20036;-68
2021/07/07 06:10:23;;;;;;;5.47;2.28;;;18.40;75.90;;;;;;5118451;27;20105;-68
2021/07/07 06:12:48;;;;;;;13.98;2.47;;;18.40;76.00;;;;;;5115262;27;20038;-68
2021/07/07 06:15:15;;;;;;;5.82;2.03;;;18.40;75.70;;;;;;5119757;27;20039;-69
2021/07/07 06:17:41;;;;;;;10.68;2.28;;;18.50;75.30;;;;;;5119880;27;20050;-68
2021/07/07 06:20:10;;;;;;;10.85;2.35;;;18.40;75.50;;;;;;5118657;27;20553;-68
2021/07/07 06:22:39;;;;;;;9.57;2.40;;;18.50;75.80;;;;;;5120335;27;20035;-69
2021/07/07 06:25:06;;;;;;;7.22;2.03;;;18.50;76.50;;;;;;5116291;27;20520;-73
2021/07/07 06:27:34;;;;;;;5.25;1.33;;;18.50;76.70;;;;;;5125744;27;20027;-68
2021/07/07 06:30:00;;;;;;;5.45;1.17;;;18.60;75.90;;;;;;5107585;27;20038;-69
2021/07/07 06:32:29;;;;;;;15.60;2.42;;;18.60;74.80;;;;;;5118480;27;20023;-69
2021/07/07 06:35:00;;;;;;;3.80;1.77;;;18.60;75.40;;;;;;5115833;27;20053;-69
2021/07/07 06:37:25;;;;;;;10.55;2.30;;;18.70;75.20;;;;;;5115846;27;20102;-70
2021/07/07 06:39:51;;;;;;;13.45;2.90;;;18.70;75.70;;;;;;5123128;27;20687;-69
2021/07/07 06:42:17;;;;;;;5.22;1.90;;;18.70;76.20;;;;;;5119941;27;20042;-69
2021/07/07 06:44:42;;;;;;;4.05;1.70;;;18.70;75.90;;;;;;5119709;27;20107;-69
2021/07/07 06:47:08;;;;;;;6.45;1.83;;;18.80;75.50;;;;;;5118337;27;20535;-69
2021/07/07 06:49:34;;;;;;;5.22;1.90;;;18.80;75.30;;;;;;5123274;27;20019;-69
2021/07/07 06:51:59;;;;;;;4.38;1.83;;;18.80;75.00;;;;;;5124677;27;20031;-70
2021/07/07 06:54:25;;;;;;;3.40;1.80;;;18.70;75.70;;;;;;5120515;27;20031;-69
2021/07/07 06:56:50;;;;;;;4.68;2.10;;;18.80;74.70;;;;;;5118656;27;20404;-69
2021/07/07 06:59:16;;;;;;;13.20;2.25;;;18.80;75.30;;;;;;5121300;27;20430;-70
2021/07/07 07:01:42;;;;;;;4.80;1.90;;;18.80;76.20;;;;;;5115879;27;20130;-69
2021/07/07 07:04:07;;;;;;;7.10;1.90;;;18.80;76.50;;;;;;5118482;27;20054;-69
2021/07/07 07:06:35;;;;;;;5.13;1.63;;;18.80;76.50;;;;;;5120109;27;20051;-69
2021/07/07 07:09:01;;;;;;;6.72;1.63;;;18.90;76.30;;;;;;5126199;27;20038;-69
2021/07/07 07:11:26;;;;;;;7.90;2.00;;;18.90;75.90;;;;;;5118888;27;20019;-69
2021/07/07 07:13:52;;;;;;;5.72;1.58;;;18.90;75.90;;;;;;5114358;27;20386;-69
2021/07/07 07:16:19;;;;;;;4.25;1.85;;;19.00;75.70;;;;;;5122563;27;20405;-69
2021/07/07 07:18:44;;;;;;;4.53;1.63;;;18.90;76.10;;;;;;5120622;27;20031;-69
2021/07/07 07:21:10;;;;;;;4.97;1.70;;;18.90;75.40;;;;;;5115493;27;20038;-69
2021/07/07 07:23:36;;;;;;;4.90;1.70;;;19.00;75.90;;;;;;5102141;27;20508;-69
2021/07/07 07:26:02;;;;;;;6.57;1.70;;;19.00;76.10;;;;;;5123949;27;20083;-69
2021/07/07 07:28:28;;;;;;;4.30;1.67;;;19.00;76.10;;;;;;5121903;27;20105;-69
2021/07/07 07:30:59;;;;;;;1.98;1.15;;;19.00;76.50;;;;;;5118497;27;20031;-69
2021/07/07 07:33:25;;;;;;;3.38;1.38;;;19.00;76.20;;;;;;5116708;27;20061;-69
2021/07/07 07:35:51;;;;;;;7.57;1.80;;;19.00;76.40;;;;;;5120004;27;20134;-68
2021/07/07 07:38:26;;;;;;;0.85;0.65;;;19.10;77.30;;;;;;5123761;27;20553;-68
2021/07/07 07:40:52;;;;;;;9.77;2.15;;;19.00;76.40;;;;;;5118009;27;20551;-68
2021/07/07 07:43:21;;;;;;;6.32;1.77;;;19.00;77.50;;;;;;5119538;27;20133;-68
2021/07/07 07:45:50;;;;;;;2.45;1.25;;;19.10;77.60;;;;;;5114051;27;20027;-68
2021/07/07 07:48:15;;;;;;;4.32;1.42;;;19.10;77.10;;;;;;5120856;27;20551;-68
2021/07/07 07:50:41;;;;;;;5.72;1.70;;;19.20;76.90;;;;;;5116892;27;20114;-68
2021/07/07 07:53:06;;;;;;;7.05;1.60;;;19.30;77.20;;;;;;5101689;28;21726;-68
2021/07/07 07:55:32;;;;;;;5.43;2.05;;;19.30;77.00;;;;;;5116126;27;20470;-69
2021/07/07 07:57:58;;;;;;;8.57;2.03;;;19.40;76.60;;;;;;5116010;27;20035;-68
2021/07/07 08:00:25;;;;;;;2.28;1.02;;;19.40;76.90;;;;;;5113308;27;20040;-76
2021/07/07 08:02:51;;;;;;;10.55;2.03;;;19.40;76.40;;;;;;5120136;27;20024;-74
2021/07/07 08:05:17;;;;;;;4.53;1.55;;;19.50;76.40;;;;;;5100635;27;20050;-74
2021/07/07 08:07:44;;;;;;;2.53;1.63;;;19.50;76.80;;;;;;5120731;27;20023;-76
2021/07/07 08:10:13;;;;;;;4.93;2.20;;;19.50;77.50;;;;;;5116571;27;20035;-76
2021/07/07 08:12:39;;;;;;;6.13;1.80;;;19.50;77.50;;;;;;5118662;27;20035;-76
2021/07/07 08:15:06;;;;;;;4.32;1.48;;;19.60;77.60;;;;;;5119249;28;20031;-78
2021/07/07 08:17:32;;;;;;;1.92;1.48;;;19.60;77.60;;;;;;5117070;28;20036;-76
2021/07/07 08:19:59;;;;;;;6.63;1.52;;;19.60;77.40;;;;;;5119190;28;20130;-77
2021/07/07 08:22:24;;;;;;;6.72;2.05;;;19.70;77.20;;;;;;5114120;28;20390;-77
2021/07/07 08:24:52;;;;;;;3.58;0.93;;;19.70;77.50;;;;;;5110497;28;20031;-77
2021/07/07 08:27:18;;;;;;;3.83;1.25;;;19.70;77.20;;;;;;5104021;28;20031;-77
2021/07/07 08:29:45;;;;;;;5.28;1.52;;;19.80;77.20;;;;;;5120457;28;20088;-77
2021/07/07 08:32:10;;;;;;;0.88;0.63;;;19.90;77.00;;;;;;5112228;28;20148;-77
2021/07/07 08:34:36;;;;;;;3.88;1.55;;;19.90;76.80;;;;;;5119799;28;20405;-79
2021/07/07 08:37:03;;;;;;;5.97;1.30;;;19.90;77.00;;;;;;5118076;28;20087;-79
2021/07/07 08:39:29;;;;;;;6.32;1.65;;;19.90;77.30;;;;;;5111256;28;20398;-79
2021/07/07 08:41:56;;;;;;;2.75;1.10;;;19.90;77.70;;;;;;5113162;28;20031;-78
2021/07/07 08:44:22;;;;;;;3.60;1.30;;;19.90;77.60;;;;;;5123741;28;20474;-77
2021/07/07 08:46:48;;;;;;;4.18;1.30;;;20.00;77.80;;;;;;5114175;28;20084;-77
2021/07/07 08:49:14;;;;;;;5.25;1.83;;;20.00;77.90;;;;;;5117061;28;20019;-78
2021/07/07 08:51:41;;;;;;;3.42;1.35;;;20.00;78.40;;;;;;5115823;28;20032;-77
2021/07/07 08:54:08;;;;;;;5.43;1.98;;;20.10;77.90;;;;;;5111087;28;20550;-77
2021/07/07 08:56:40;;;;;;;6.88;1.70;;;20.20;78.30;;;;;;5118514;28;20044;-74
2021/07/07 08:59:05;;;;;;;6.80;2.00;;;20.20;78.10;;;;;;5117623;28;20131;-75
2021/07/07 09:01:31;;;;;;;12.95;1.70;;;20.10;78.50;;;;;;5113659;28;20055;-74
2021/07/07 09:03:57;;;;;;;6.60;1.27;;;20.20;78.70;;;;;;5111975;28;20118;-74
2021/07/07 09:06:22;;;;;;;5.97;1.05;;;20.30;78.30;;;;;;5110769;28;20040;-74
2021/07/07 09:08:49;;;;;;;2.97;0.90;;;20.30;77.70;;;;;;5121794;28;20023;-75
2021/07/07 09:11:24;;;;;;;4.15;1.30;;;20.40;77.80;;;;;;5116334;28;20441;-75
2021/07/07 09:14:11;;;;;;;5.70;1.23;;;20.40;78.00;;;;;;5118617;28;20031;-74
2021/07/07 09:16:58;;;;;;;6.60;1.52;;;20.40;78.00;;;;;;5116736;28;20028;-74
2021/07/07 09:19:26;;;;;;;5.72;2.35;;;20.40;78.40;;;;;;5114290;28;20397;-75
2021/07/07 09:21:55;;;;;;;4.20;1.08;;;20.40;77.90;;;;;;5121193;27;20120;-74
2021/07/07 09:24:24;;;;;;;0.60;0.47;;;20.40;77.80;;;;;;5111398;28;20046;-74
2021/07/07 09:27:05;;;;;;;1.73;0.82;;;20.40;77.90;;;;;;5111382;28;20057;-74
2021/07/07 09:29:39;;;;;;;4.60;1.33;;;20.40;77.90;;;;;;5123005;27;20703;-74
2021/07/07 09:32:28;;;;;;;4.75;1.50;;;20.50;77.80;;;;;;5119415;27;20027;-74
2021/07/07 09:35:04;;;;;;;8.02;1.95;;;20.50;77.60;;;;;;5126523;27;20036;-75
2021/07/07 09:37:44;;;;;;;2.38;1.23;;;20.50;77.60;;;;;;5124742;27;20090;-70
2021/07/07 09:40:11;;;;;;;5.38;1.75;;;20.50;77.90;;;;;;5118147;27;20043;-71
2021/07/07 09:42:41;;;;;;;6.07;1.05;;;20.60;77.80;;;;;;5119135;27;20032;-70
2021/07/07 09:45:12;;;;;;;1.38;0.80;;;20.60;77.80;;;;;;5125500;27;20027;-70
2021/07/07 09:47:41;;;;;;;4.68;1.88;;;20.70;77.90;;;;;;5129152;27;20492;-70
2021/07/07 09:50:08;;;;;;;5.25;1.83;;;20.70;78.10;;;;;;5123483;27;20390;-71
2021/07/07 09:52:35;;;;;;;8.82;1.67;;;20.80;78.10;;;;;;5126028;27;20042;-70
2021/07/07 09:55:03;;;;;;;3.63;1.40;;;20.80;77.90;;;;;;5128035;27;20046;-71
2021/07/07 09:57:28;;;;;;;8.48;1.70;;;20.90;77.50;;;;;;5112347;28;20055;-69
2021/07/07 09:59:54;;;;;;;4.78;1.80;;;21.00;77.30;;;;;;5114174;28;20078;-69
2021/07/07 10:02:20;;;;;;;4.55;1.55;;;21.00;77.20;;;;;;5118288;27;20031;-69
2021/07/07 10:04:45;;;;;;;3.60;1.75;;;21.10;77.10;;;;;;5118619;28;20442;-68
2021/07/07 10:07:13;;;;;;;3.80;1.10;;;21.10;77.30;;;;;;5119845;28;20047;-69
2021/07/07 10:09:45;;;;;;;4.22;1.50;;;21.10;77.50;;;;;;5117272;28;20053;-69
2021/07/07 10:12:11;;;;;;;4.18;1.48;;;21.20;77.40;;;;;;5115401;28;20024;-69
2021/07/07 10:14:37;;;;;;;4.43;0.95;;;21.20;77.10;;;;;;5118480;27;20401;-69
2021/07/07 10:17:07;;;;;;;11.18;2.05;;;21.30;77.30;;;;;;5130577;27;20479;-69
2021/07/07 10:19:34;;;;;;;3.67;1.20;;;21.30;78.00;;;;;;5118908;28;20051;-69
2021/07/07 10:22:00;;;;;;;6.43;1.90;;;21.40;77.60;;;;;;5116412;28;20588;-69
2021/07/07 10:24:29;;;;;;;3.97;1.67;;;21.50;77.10;;;;;;5117020;28;20058;-70
2021/07/07 10:27:13;;;;;;;9.57;1.77;;;21.60;76.90;;;;;;5130131;27;20042;-70
2021/07/07 10:29:47;;;;;;;1.38;0.90;;;21.60;76.90;;;;;;5120930;27;20031;-68
2021/07/07 10:32:16;;;;;;;10.68;1.70;;;21.60;76.60;;;;;;5117278;27;20065;-69
2021/07/07 10:34:42;;;;;;;2.75;1.17;;;21.80;76.60;;;;;;5119341;27;20032;-69
2021/07/07 10:37:08;;;;;;;9.90;1.92;;;21.80;76.70;;;;;;5116683;27;20030;-69
2021/07/07 10:39:43;;;;;;;;;;;21.90;76.30;;;;;;5119132;27;20047;-68
2021/07/07 10:42:09;;;;;;;5.50;1.73;;;21.90;76.40;;;;;;5119087;27;19919;-68
2021/07/07 10:44:40;;;;;;;6.00;1.75;;;21.90;75.50;;;;;;5117001;27;20031;-69
2021/07/07 10:47:12;;;;;;;4.13;1.50;;;22.00;75.50;;;;;;5118692;27;20067;-68
2021/07/07 10:49:51;;;;;;;3.70;1.58;;;22.10;75.60;;;;;;5113356;27;20069;-69
2021/07/07 10:52:35;;;;;;;3.38;1.55;;;22.10;75.40;;;;;;5111002;28;20477;-69
2021/07/07 10:55:07;;;;;;;2.90;0.77;;;22.10;74.70;;;;;;5116251;27;20069;-69
2021/07/07 10:57:36;;;;;;;4.03;1.58;;;22.10;75.10;;;;;;5113066;28;20016;-69
2021/07/07 11:00:05;;;;;;;3.95;1.50;;;22.20;74.60;;;;;;5111677;28;20031;-69
2021/07/07 11:02:33;;;;;;;2.65;1.60;;;22.10;74.30;;;;;;5117511;27;20371;-69
2021/07/07 11:05:04;;;;;;;7.40;1.80;;;22.20;74.90;;;;;;5119135;27;20085;-69
2021/07/07 11:07:31;;;;;;;6.97;1.65;;;22.20;74.70;;;;;;5111279;27;20035;-69
2021/07/07 11:10:14;;;;;;;7.13;1.80;;;22.30;74.70;;;;;;5113546;28;20455;-69
2021/07/07 11:12:39;;;;;;;5.80;1.80;;;22.30;74.70;;;;;;5120003;27;20028;-69
2021/07/07 11:15:17;;;;;;;1.73;0.73;;;22.40;74.30;;;;;;5115368;28;20024;-69
2021/07/07 11:17:44;;;;;;;4.30;0.98;;;22.40;74.70;;;;;;5114569;28;20034;-69
2021/07/07 11:20:19;;;;;;;3.05;1.33;;;22.50;74.50;;;;;;5115456;27;20051;-69
2021/07/07 11:22:47;;;;;;;11.38;2.30;;;22.50;74.40;;;;;;5111244;27;20083;-69
2021/07/07 11:25:19;;;;;;;7.95;2.00;;;22.60;73.60;;;;;;5119705;27;20042;-69
2021/07/07 11:27:44;;;;;;;6.15;1.88;;;22.60;73.90;;;;;;5114030;28;20039;-69
2021/07/07 11:30:12;;;;;;;8.13;1.58;;;22.70;73.60;;;;;;5114636;28;20045;-69
2021/07/07 11:32:40;;;;;;;3.85;1.40;;;22.80;73.70;;;;;;5115412;27;20024;-69
2021/07/07 11:35:11;;;;;;;8.70;1.55;;;22.80;74.20;;;;;;5112328;27;20039;-69
2021/07/07 11:37:38;;;;;;;6.50;1.80;;;22.90;73.60;;;;;;5112848;28;20039;-69
2021/07/07 11:40:11;;;;;;;5.57;1.88;;;22.90;73.50;;;;;;5115107;28;20129;-69
2021/07/07 11:42:59;;;;;;;3.50;1.17;;;23.00;74.00;;;;;;5111362;28;20031;-70
2021/07/07 11:45:28;;;;;;;4.20;1.10;;;23.10;74.10;;;;;;5095577;28;20039;-70
2021/07/07 11:48:41;;;;;;;2.58;1.30;;;23.10;73.80;;;;;;5111195;28;20035;-70
2021/07/07 11:50:49;;;;;;;2.55;1.27;;;23.10;73.00;;;;;;5102176;28;20027;-69
2021/07/07 11:53:15;;;;;;;3.08;1.17;;;23.20;73.20;;;;;;5112508;28;20027;-70
2021/07/07 11:56:06;;;;;;;2.75;1.25;;;23.20;72.50;;;;;;5112270;28;20027;-70
2021/07/07 11:58:57;;;;;;;2.08;0.77;;;23.20;72.90;;;;;;5114624;28;20015;-70
2021/07/07 12:01:33;;;;;;;2.58;1.90;;;23.20;72.80;;;;;;5119157;27;20035;-70
2021/07/07 12:04:07;;;;;;;0.85;0.85;;;23.30;72.80;;;;;;5111487;28;20024;-70
2021/07/07 12:06:46;;;;;;;2.05;1.20;;;23.30;72.20;;;;;;5115799;28;20023;-70
2021/07/07 12:09:18;;;;;;;4.70;1.27;;;23.30;71.20;;;;;;5118048;28;20739;-70
2021/07/07 12:11:54;;;;;;;3.28;1.30;;;23.30;70.60;;;;;;5112691;28;20051;-69
2021/07/07 12:14:23;;;;;;;10.98;1.80;;;23.30;71.40;;;;;;5103501;28;20032;-70
2021/07/07 12:16:56;;;;;;;4.63;1.30;;;23.40;71.20;;;;;;5108038;28;20031;-70
2021/07/07 12:19:22;;;;;;;4.63;1.17;;;23.40;72.20;;;;;;5120220;28;20036;-70
2021/07/07 12:21:55;;;;;;;6.10;1.40;;;23.40;71.90;;;;;;5077734;28;20374;-70
2021/07/07 12:24:28;;;;;;;1.17;1.10;;;23.60;71.70;;;;;;5116461;28;20030;-70
2021/07/07 12:27:03;;;;;;;2.17;0.82;;;23.60;71.30;;;;;;5125097;28;20029;-69
2021/07/07 12:29:34;;;;;;;5.97;1.15;;;23.60;71.30;;;;;;5113298;28;20482;-69
2021/07/07 12:32:04;;;;;;;8.70;2.20;;;23.60;71.60;;;;;;5121772;28;20064;-69
2021/07/07 12:34:36;;;;;;;7.80;1.70;;;23.70;71.30;;;;;;5117383;28;20055;-69
2021/07/07 12:37:08;;;;;;;4.53;1.17;;;23.70;70.50;;;;;;5113889;28;20020;-70
2021/07/07 12:39:39;;;;;;;2.05;1.08;;;23.80;71.10;;;;;;5114850;28;20041;-69
2021/07/07 12:42:13;;;;;;;2.78;1.33;;;23.80;71.50;;;;;;5121977;28;20553;-70
2021/07/07 12:44:41;;;;;;;4.25;1.23;;;23.90;71.00;;;;;;5115047;28;20478;-70
2021/07/07 12:47:17;;;;;;;4.60;1.23;;;24.00;71.10;;;;;;5121359;28;20027;-70
2021/07/07 12:49:50;;;;;;;3.45;1.70;;;24.00;70.90;;;;;;5115948;28;20107;-70